Time;durP1;ratioP1;P1;durP2;ratioP2;P2;SDS_P1;SDS_P2;PMS_P1;PMS_P2;Temp;Humidity;BMP_temperature;BMP_pressure;BME280_temperature;BME280_humidity;BME280_pressure;Samples;Min_cycle;Max_cycle;Signal;HPM_P1;HPM_P2
2021/10/22 00:02:13;;;;;;;2.25;1.00;;;;;;;;;;5062764;28;20028;-65
2021/10/22 00:04:58;;;;;;;2.38;1.10;;;;;;;;;;5054869;28;20090;-65
2021/10/22 00:07:43;;;;;;;3.35;1.20;;;;;;;;;;5052573;28;20399;-68
2021/10/22 00:10:29;;;;;;;1.98;1.50;;;;;;;;;;5055491;28;20029;-68
2021/10/22 00:13:14;;;;;;;2.38;1.70;;;;;;;;;;5064261;28;20031;-70
2021/10/22 00:16:00;;;;;;;2.15;1.40;;;;;;;;;;5056154;28;20406;-68
2021/10/22 00:18:45;;;;;;;2.00;1.40;;;;;;;;;;5053596;28;20029;-69
2021/10/22 00:21:31;;;;;;;2.58;1.73;;;;;;;;;;5057401;28;20048;-68
2021/10/22 00:24:16;;;;;;;4.85;1.90;;;;;;;;;;5048736;28;20041;-66
2021/10/22 00:27:02;;;;;;;4.28;1.85;;;;;;;;;;5049001;28;20516;-75
2021/10/22 00:29:47;;;;;;;2.15;1.30;;;;;;;;;;5049135;28;20021;-75
2021/10/22 00:32:32;;;;;;;4.15;1.40;;;;;;;;;;5061123;28;20029;-75
2021/10/22 00:35:18;;;;;;;4.97;1.38;;;;;;;;;;5052269;28;20028;-76
2021/10/22 00:38:03;;;;;;;2.00;1.30;;;;;;;;;;5051897;28;20024;-75
2021/10/22 00:40:51;;;;;;;5.75;1.58;;;;;;;;;;5073604;28;20482;-64
2021/10/22 00:43:36;;;;;;;4.25;1.83;;;;;;;;;;5069464;28;20090;-69
2021/10/22 00:46:27;;;;;;;2.75;1.58;;;;;;;;;;5063541;28;20052;-62
2021/10/22 00:49:13;;;;;;;3.08;1.55;;;;;;;;;;5063743;28;20033;-63
2021/10/22 00:51:58;;;;;;;5.00;1.70;;;;;;;;;;5057482;28;20111;-62
2021/10/22 00:54:43;;;;;;;2.72;1.55;;;;;;;;;;5062032;28;20439;-61
2021/10/22 00:57:29;;;;;;;5.25;2.75;;;;;;;;;;5054251;28;20756;-66
2021/10/22 01:00:14;;;;;;;1.70;1.40;;;;;;;;;;5058437;28;20024;-68
2021/10/22 01:02:59;;;;;;;3.15;1.52;;;;;;;;;;5071049;28;20037;-67
2021/10/22 01:05:45;;;;;;;5.30;2.60;;;;;;;;;;5057978;28;20066;-67
2021/10/22 01:08:32;;;;;;;5.82;2.72;;;;;;;;;;5066891;28;20044;-68
2021/10/22 01:11:17;;;;;;;15.77;2.50;;;;;;;;;;5067811;28;20377;-69
2021/10/22 01:14:03;;;;;;;5.97;1.85;;;;;;;;;;5066691;28;20467;-66
2021/10/22 01:16:48;;;;;;;4.30;1.38;;;;;;;;;;5060439;28;20108;-67
2021/10/22 01:19:33;;;;;;;4.20;1.20;;;;;;;;;;5055489;28;20032;-77
2021/10/22 01:22:18;;;;;;;5.22;1.50;;;;;;;;;;5065579;28;20040;-63
2021/10/22 01:25:07;;;;;;;6.50;1.75;;;;;;;;;;5057864;28;20035;-63
2021/10/22 01:27:53;;;;;;;6.57;1.40;;;;;;;;;;5053519;28;20410;-63
2021/10/22 01:30:39;;;;;;;7.05;1.83;;;;;;;;;;5064747;28;20033;-64
2021/10/22 01:33:24;;;;;;;5.38;1.38;;;;;;;;;;5059940;28;20048;-65
2021/10/22 01:36:09;;;;;;;6.60;1.50;;;;;;;;;;5076881;28;20107;-63
2021/10/22 01:38:55;;;;;;;9.25;2.10;;;;;;;;;;5064109;28;20045;-66
2021/10/22 01:41:41;;;;;;;5.88;1.55;;;;;;;;;;5061849;28;20064;-68
2021/10/22 01:44:27;;;;;;;5.60;1.55;;;;;;;;;;5052148;28;20033;-68
2021/10/22 01:47:12;;;;;;;8.00;1.70;;;;;;;;;;5056817;28;20102;-67
2021/10/22 01:49:58;;;;;;;4.63;1.33;;;;;;;;;;5056862;28;20120;-67
2021/10/22 01:52:46;;;;;;;6.18;1.73;;;;;;;;;;5068873;28;20412;-67
2021/10/22 01:55:31;;;;;;;8.35;1.85;;;;;;;;;;5058063;28;20025;-68
2021/10/22 01:58:16;;;;;;;6.25;1.77;;;;;;;;;;5056796;28;20047;-66
2021/10/22 02:01:02;;;;;;;7.82;1.85;;;;;;;;;;5055631;28;20032;-66
2021/10/22 02:03:47;;;;;;;4.70;1.50;;;;;;;;;;5053731;28;20564;-66
2021/10/22 02:06:32;;;;;;;5.35;1.48;;;;;;;;;;5066641;28;20040;-65
2021/10/22 02:09:18;;;;;;;10.70;2.05;;;;;;;;;;5045260;28;20124;-66
2021/10/22 02:12:04;;;;;;;5.82;1.55;;;;;;;;;;5059174;28;20056;-66
2021/10/22 02:14:49;;;;;;;9.10;1.98;;;;;;;;;;5054684;28;20039;-63
2021/10/22 02:17:35;;;;;;;8.38;1.70;;;;;;;;;;5057910;28;20029;-68
2021/10/22 02:20:21;;;;;;;6.97;2.05;;;;;;;;;;5058664;28;20096;-69
2021/10/22 02:23:07;;;;;;;5.63;1.88;;;;;;;;;;5054979;28;20074;-68
2021/10/22 02:25:52;;;;;;;5.15;1.63;;;;;;;;;;5050872;28;20044;-67
2021/10/22 02:28:37;;;;;;;6.55;1.42;;;;;;;;;;5067248;28;20036;-67
2021/10/22 02:31:22;;;;;;;7.25;2.85;;;;;;;;;;5059199;28;20029;-68
2021/10/22 02:34:08;;;;;;;6.10;2.30;;;;;;;;;;5051787;28;20480;-70
2021/10/22 02:36:53;;;;;;;3.80;1.63;;;;;;;;;;5065478;28;20127;-71
2021/10/22 02:39:39;;;;;;;6.05;1.30;;;;;;;;;;5055797;28;20032;-69
2021/10/22 02:42:24;;;;;;;4.75;1.25;;;;;;;;;;5064583;28;20028;-69
2021/10/22 02:45:09;;;;;;;7.10;2.20;;;;;;;;;;5053140;28;20036;-70
2021/10/22 02:47:55;;;;;;;5.38;1.80;;;;;;;;;;5062473;28;20052;-69
2021/10/22 02:50:40;;;;;;;2.13;1.30;;;;;;;;;;5051306;28;20021;-67
2021/10/22 02:53:25;;;;;;;2.60;1.52;;;;;;;;;;5076776;28;20032;-77
2021/10/22 02:56:11;;;;;;;6.13;2.03;;;;;;;;;;5061483;28;20020;-77
2021/10/22 02:58:56;;;;;;;4.75;2.10;;;;;;;;;;5057986;28;20128;-77
2021/10/22 03:01:42;;;;;;;10.05;1.73;;;;;;;;;;5057194;28;20047;-79
2021/10/22 03:04:27;;;;;;;8.10;2.42;;;;;;;;;;5056078;28;20566;-79
2021/10/22 03:07:13;;;;;;;4.07;1.70;;;;;;;;;;5052199;28;20036;-78
2021/10/22 03:09:58;;;;;;;5.93;2.10;;;;;;;;;;5065932;28;20390;-69
2021/10/22 03:12:43;;;;;;;9.15;1.92;;;;;;;;;;5066018;28;20030;-69
2021/10/22 03:15:28;;;;;;;4.22;1.60;;;;;;;;;;5062430;28;20040;-68
2021/10/22 03:18:14;;;;;;;5.85;2.42;;;;;;;;;;5051939;28;20384;-68
2021/10/22 03:20:59;;;;;;;5.50;2.03;;;;;;;;;;5057608;28;20036;-69
2021/10/22 03:23:44;;;;;;;4.60;1.88;;;;;;;;;;5058226;28;20143;-67
2021/10/22 03:26:29;;;;;;;6.75;2.10;;;;;;;;;;5056804;28;20044;-71
2021/10/22 03:29:15;;;;;;;6.88;2.25;;;;;;;;;;5058226;28;20111;-60
2021/10/22 03:32:01;;;;;;;6.28;3.03;;;;;;;;;;5059567;28;20079;-70
2021/10/22 03:34:46;;;;;;;6.20;1.88;;;;;;;;;;5074551;28;20116;-69
2021/10/22 03:37:32;;;;;;;6.85;2.60;;;;;;;;;;5053619;28;20036;-72
2021/10/22 03:40:17;;;;;;;4.13;1.90;;;;;;;;;;5062122;28;20017;-70
2021/10/22 03:43:02;;;;;;;5.65;1.90;;;;;;;;;;5062494;28;20386;-71
2021/10/22 03:45:48;;;;;;;9.60;2.03;;;;;;;;;;5048810;28;20045;-70
2021/10/22 03:48:33;;;;;;;6.80;2.17;;;;;;;;;;5059695;28;20047;-68
2021/10/22 03:51:18;;;;;;;3.00;2.00;;;;;;;;;;5053204;28;20016;-68
2021/10/22 03:54:03;;;;;;;3.55;1.60;;;;;;;;;;5052806;28;20682;-66
2021/10/22 03:56:49;;;;;;;8.70;2.30;;;;;;;;;;5055126;28;20029;-68
2021/10/22 03:59:34;;;;;;;5.57;2.10;;;;;;;;;;5064916;28;20032;-68
2021/10/22 04:02:20;;;;;;;6.13;1.80;;;;;;;;;;5055592;28;20112;-68
2021/10/22 04:05:07;;;;;;;5.70;2.00;;;;;;;;;;5053518;28;20471;-63
2021/10/22 04:07:52;;;;;;;5.90;1.70;;;;;;;;;;5067889;28;20118;-62
2021/10/22 04:10:41;;;;;;;4.30;1.98;;;;;;;;;;5071097;28;20043;-61
2021/10/22 04:13:27;;;;;;;7.20;2.03;;;;;;;;;;5057067;28;20472;-65
2021/10/22 04:16:12;;;;;;;8.80;2.10;;;;;;;;;;5063391;28;20107;-62
2021/10/22 04:18:57;;;;;;;5.93;1.88;;;;;;;;;;5055022;28;20626;-61
2021/10/22 04:21:42;;;;;;;5.85;1.40;;;;;;;;;;5066617;28;20032;-63
2021/10/22 04:24:28;;;;;;;7.03;2.10;;;;;;;;;;5065511;28;20029;-61
2021/10/22 04:27:13;;;;;;;7.00;1.88;;;;;;;;;;5061509;28;20021;-75
2021/10/22 04:29:59;;;;;;;9.50;3.55;;;;;;;;;;5061930;28;20107;-75
2021/10/22 04:32:45;;;;;;;4.75;1.77;;;;;;;;;;5061211;28;20158;-76
2021/10/22 04:35:31;;;;;;;6.07;3.15;;;;;;;;;;5075347;28;20070;-77
2021/10/22 04:41:04;;;;;;;3.30;1.92;;;;;;;;;;5071941;28;20067;-76
2021/10/22 04:43:50;;;;;;;5.75;2.20;;;;;;;;;;5060535;28;20033;-65
2021/10/22 04:46:37;;;;;;;5.80;2.45;;;;;;;;;;5058119;28;20062;-67
2021/10/22 04:49:22;;;;;;;5.38;2.00;;;;;;;;;;5079886;28;20085;-66
2021/10/22 04:52:08;;;;;;;5.63;2.20;;;;;;;;;;5068554;28;20024;-66
2021/10/22 04:54:53;;;;;;;8.88;2.42;;;;;;;;;;5057912;28;20041;-65
2021/10/22 04:57:38;;;;;;;7.07;2.10;;;;;;;;;;5057131;28;20063;-65
2021/10/22 05:00:23;;;;;;;6.10;2.00;;;;;;;;;;5063911;28;20112;-69
2021/10/22 05:03:09;;;;;;;9.13;2.22;;;;;;;;;;5054608;28;20025;-62
2021/10/22 05:05:54;;;;;;;6.85;2.10;;;;;;;;;;5058685;28;20039;-61
2021/10/22 05:08:39;;;;;;;8.25;2.60;;;;;;;;;;5063800;28;20411;-60
2021/10/22 05:11:25;;;;;;;8.05;1.98;;;;;;;;;;5064327;28;20025;-59
2021/10/22 05:14:10;;;;;;;5.95;2.22;;;;;;;;;;5059557;28;20032;-63
2021/10/22 05:16:55;;;;;;;5.30;2.20;;;;;;;;;;5061132;28;20036;-65
2021/10/22 05:19:40;;;;;;;4.85;1.90;;;;;;;;;;5070704;28;20514;-63
2021/10/22 05:22:26;;;;;;;7.55;2.58;;;;;;;;;;5060104;28;20063;-62
2021/10/22 05:25:11;;;;;;;7.25;2.08;;;;;;;;;;5056818;28;20492;-63
2021/10/22 05:27:57;;;;;;;24.63;13.15;;;;;;;;;;5061931;28;20040;-60
2021/10/22 05:30:42;;;;;;;14.43;5.18;;;;;;;;;;5064448;28;20560;-60
2021/10/22 05:33:28;;;;;;;8.95;2.63;;;;;;;;;;5066048;28;20060;-62
2021/10/22 05:36:13;;;;;;;7.00;2.17;;;;;;;;;;5070986;28;20104;-62
2021/10/22 05:38:58;;;;;;;10.30;2.40;;;;;;;;;;5061302;28;20764;-65
2021/10/22 05:41:44;;;;;;;9.38;2.20;;;;;;;;;;5065312;28;20041;-65
2021/10/22 05:44:29;;;;;;;7.95;2.10;;;;;;;;;;5065440;28;20024;-66
2021/10/22 05:47:15;;;;;;;16.85;3.63;;;;;;;;;;5064448;28;20044;-69
2021/10/22 05:50:00;;;;;;;7.53;2.50;;;;;;;;;;5073795;28;20040;-65
2021/10/22 05:52:45;;;;;;;6.45;2.28;;;;;;;;;;5064782;28;20603;-62
2021/10/22 05:55:31;;;;;;;5.95;2.97;;;;;;;;;;5065849;28;20028;-66
2021/10/22 05:58:16;;;;;;;7.25;2.03;;;;;;;;;;5064724;28;20423;-66
2021/10/22 06:01:02;;;;;;;8.95;2.50;;;;;;;;;;5048998;28;20028;-66
2021/10/22 06:03:47;;;;;;;9.60;2.58;;;;;;;;;;5063438;28;20048;-70
2021/10/22 06:06:33;;;;;;;9.80;2.80;;;;;;;;;;5062836;28;20032;-65
2021/10/22 06:09:18;;;;;;;11.40;3.97;;;;;;;;;;5062581;28;20496;-64
2021/10/22 06:12:04;;;;;;;14.88;6.53;;;;;;;;;;5053792;28;20027;-63
2021/10/22 06:14:49;;;;;;;16.42;3.85;;;;;;;;;;5060580;28;20120;-66
2021/10/22 06:17:34;;;;;;;9.73;2.90;;;;;;;;;;5057558;28;20036;-68
2021/10/22 06:20:43;;;;;;;9.50;2.95;;;;;;;;;;5050303;28;20062;-67
2021/10/22 06:26:34;;;;;;;8.15;2.60;;;;;;;;;;5064873;28;20029;-72
2021/10/22 06:29:19;;;;;;;9.07;2.45;;;;;;;;;;5052934;28;20060;-71
2021/10/22 06:32:05;;;;;;;14.00;3.15;;;;;;;;;;5062938;28;20028;-72
2021/10/22 06:34:50;;;;;;;7.22;2.13;;;;;;;;;;5041929;28;20081;-64
2021/10/22 06:37:36;;;;;;;9.45;2.80;;;;;;;;;;5053436;28;20085;-65
2021/10/22 06:40:22;;;;;;;7.78;2.60;;;;;;;;;;5058587;28;20052;-66
2021/10/22 06:43:09;;;;;;;5.88;1.77;;;;;;;;;;5058243;28;20365;-66
2021/10/22 06:45:54;;;;;;;10.98;3.10;;;;;;;;;;5055581;28;20076;-66
2021/10/22 06:48:40;;;;;;;9.45;2.47;;;;;;;;;;5052746;28;20040;-67
2021/10/22 06:51:26;;;;;;;15.05;3.13;;;;;;;;;;5062158;28;20071;-66
2021/10/22 06:54:11;;;;;;;12.55;3.78;;;;;;;;;;5052616;28;20075;-61
2021/10/22 06:56:56;;;;;;;7.50;2.15;;;;;;;;;;5054580;28;20060;-64
2021/10/22 06:59:42;;;;;;;7.75;2.40;;;;;;;;;;5058381;28;20031;-62
2021/10/22 07:02:27;;;;;;;10.35;2.85;;;;;;;;;;5055324;28;20052;-61
2021/10/22 07:05:23;;;;;;;12.80;5.00;;;;;;;;;;5047817;28;20601;-61
2021/10/22 07:08:09;;;;;;;10.27;3.08;;;;;;;;;;5060173;28;20123;-78
2021/10/22 07:10:54;;;;;;;10.35;2.22;;;;;;;;;;5055991;28;20131;-69
2021/10/22 07:13:40;;;;;;;10.90;3.53;;;;;;;;;;5061935;28;20535;-67
2021/10/22 07:16:29;;;;;;;7.68;2.30;;;;;;;;;;5069659;28;20098;-67
2021/10/22 07:19:14;;;;;;;12.20;2.30;;;;;;;;;;5051382;28;20483;-67
2021/10/22 07:22:05;;;;;;;13.18;2.83;;;;;;;;;;5056859;28;20376;-67
2021/10/22 07:24:50;;;;;;;12.95;2.60;;;;;;;;;;5052008;28;20491;-68
2021/10/22 07:27:36;;;;;;;14.07;4.20;;;;;;;;;;5064413;28;20544;-63
2021/10/22 07:30:21;;;;;;;13.35;2.38;;;;;;;;;;5061887;28;20425;-65
2021/10/22 07:33:06;;;;;;;12.40;2.65;;;;;;;;;;5040437;28;20124;-62
2021/10/22 07:35:51;;;;;;;7.90;2.70;;;;;;;;;;5067361;28;20619;-61
2021/10/22 07:38:37;;;;;;;14.93;3.83;;;;;;;;;;5064007;28;20105;-62
2021/10/22 07:41:22;;;;;;;14.50;3.13;;;;;;;;;;5053311;28;20024;-61
2021/10/22 07:44:07;;;;;;;13.07;3.25;;;;;;;;;;5050708;28;20067;-62
2021/10/22 07:46:54;;;;;;;26.77;14.48;;;;;;;;;;5062526;28;20049;-67
2021/10/22 07:49:41;;;;;;;45.38;26.58;;;;;;;;;;5065511;28;20037;-63
2021/10/22 07:52:28;;;;;;;14.95;6.00;;;;;;;;;;5053427;28;20072;-64
2021/10/22 07:55:13;;;;;;;12.38;3.25;;;;;;;;;;5056680;28;20392;-64
2021/10/22 07:57:58;;;;;;;9.07;3.05;;;;;;;;;;5063929;28;20035;-62
2021/10/22 08:00:44;;;;;;;12.52;3.65;;;;;;;;;;5057194;28;20024;-63
2021/10/22 08:03:29;;;;;;;9.82;2.45;;;;;;;;;;5051825;28;20025;-66
2021/10/22 08:06:15;;;;;;;13.85;2.83;;;;;;;;;;5055116;28;20032;-65
2021/10/22 08:09:00;;;;;;;11.52;3.13;;;;;;;;;;5061417;28;20029;-63
2021/10/22 08:11:47;;;;;;;10.05;2.83;;;;;;;;;;5064362;28;20048;-63
2021/10/22 08:14:32;;;;;;;11.40;3.17;;;;;;;;;;5061278;28;20048;-65
2021/10/22 08:17:18;;;;;;;8.52;2.53;;;;;;;;;;5053468;28;20037;-62
2021/10/22 08:20:11;;;;;;;15.15;3.42;;;;;;;;;;5048434;28;20241;-68
2021/10/22 08:22:56;;;;;;;13.02;2.90;;;;;;;;;;5053777;28;20054;-81
2021/10/22 08:25:42;;;;;;;11.10;3.00;;;;;;;;;;5055315;28;20044;-63
2021/10/22 08:28:27;;;;;;;8.75;2.58;;;;;;;;;;5059122;28;20045;-66
2021/10/22 08:31:12;;;;;;;21.48;7.47;;;;;;;;;;5053633;28;20035;-67
2021/10/22 08:33:57;;;;;;;16.65;3.50;;;;;;;;;;5060441;28;20032;-68
2021/10/22 08:36:43;;;;;;;13.77;3.50;;;;;;;;;;5062642;28;20036;-65
2021/10/22 08:39:28;;;;;;;14.32;3.30;;;;;;;;;;5057907;28;20033;-62
2021/10/22 08:42:17;;;;;;;12.73;3.28;;;;;;;;;;5056140;28;20089;-66
2021/10/22 08:45:03;;;;;;;19.20;2.95;;;;;;;;;;5056411;28;20518;-65
2021/10/22 08:47:49;;;;;;;13.32;3.20;;;;;;;;;;5036395;28;20627;-65
2021/10/22 08:50:35;;;;;;;16.35;3.30;;;;;;;;;;5067626;28;20033;-67
2021/10/22 08:53:21;;;;;;;9.80;2.83;;;;;;;;;;5053287;28;20033;-64
2021/10/22 08:56:06;;;;;;;18.75;3.70;;;;;;;;;;5062884;28;20044;-65
2021/10/22 08:58:52;;;;;;;16.08;3.53;;;;;;;;;;5057718;28;20115;-64
2021/10/22 09:01:57;;;;;;;15.05;3.38;;;;;;;;;;5057304;28;20491;-64
2021/10/22 09:04:43;;;;;;;11.48;3.05;;;;;;;;;;5059888;28;20062;-63
2021/10/22 09:07:43;;;;;;;12.98;2.90;;;;;;;;;;5047416;28;20046;-65
2021/10/22 09:10:29;;;;;;;14.48;3.05;;;;;;;;;;5073623;28;20376;-62
2021/10/22 09:13:16;;;;;;;15.07;3.50;;;;;;;;;;5070315;28;20103;-63
2021/10/22 09:16:22;;;;;;;20.67;8.15;;;;;;;;;;5063359;28;20040;-65
2021/10/22 09:19:07;;;;;;;13.48;3.38;;;;;;;;;;5056237;28;20029;-62
2021/10/22 09:21:53;;;;;;;18.48;3.45;;;;;;;;;;5059094;28;20213;-70
2021/10/22 09:24:38;;;;;;;12.70;3.25;;;;;;;;;;5064332;28;20117;-68
2021/10/22 09:27:53;;;;;;;13.43;3.25;;;;;;;;;;5065006;28;20048;-66
2021/10/22 09:30:45;;;;;;;10.95;3.10;;;;;;;;;;5040981;28;20033;-70
2021/10/22 09:33:30;;;;;;;11.35;3.33;;;;;;;;;;5062508;28;20028;-69
2021/10/22 09:36:29;;;;;;;13.10;3.80;;;;;;;;;;5065248;28;20037;-66
2021/10/22 09:39:21;;;;;;;8.07;3.25;;;;;;;;;;5061550;28;20054;-62
2021/10/22 09:42:11;;;;;;;9.63;3.80;;;;;;;;;;5065209;28;20044;-64
2021/10/22 09:44:56;;;;;;;8.95;2.95;;;;;;;;;;5058598;28;20021;-64
2021/10/22 09:47:42;;;;;;;11.82;3.67;;;;;;;;;;5062410;28;20513;-61
2021/10/22 09:50:27;;;;;;;9.88;4.05;;;;;;;;;;5066501;28;20043;-62
2021/10/22 09:53:23;;;;;;;10.23;4.60;;;;;;;;;;5053874;28;20029;-75
2021/10/22 09:56:09;;;;;;;8.57;3.30;;;;;;;;;;5060864;28;20111;-71
2021/10/22 09:59:00;;;;;;;9.38;5.18;;;;;;;;;;5066512;28;20028;-67
2021/10/22 10:01:45;;;;;;;6.10;3.08;;;;;;;;;;5059845;28;20046;-68
2021/10/22 10:04:31;;;;;;;9.50;3.50;;;;;;;;;;5062870;28;20059;-66
2021/10/22 10:07:16;;;;;;;8.63;3.20;;;;;;;;;;5063471;28;20058;-68
2021/10/22 10:10:02;;;;;;;6.97;3.05;;;;;;;;;;5066764;28;20035;-66
2021/10/22 10:12:47;;;;;;;8.27;4.05;;;;;;;;;;5046619;28;20133;-63
2021/10/22 10:15:33;;;;;;;7.75;5.07;;;;;;;;;;5058543;28;20471;-62
2021/10/22 10:18:18;;;;;;;9.00;4.63;;;;;;;;;;5057452;28;20143;-63
2021/10/22 10:21:04;;;;;;;8.93;2.22;;;;;;;;;;5057229;28;20058;-66
2021/10/22 10:23:50;;;;;;;8.52;2.15;;;;;;;;;;5059396;28;20060;-63
2021/10/22 10:26:35;;;;;;;9.10;2.72;;;;;;;;;;5067603;28;20044;-63
2021/10/22 10:29:28;;;;;;;8.93;2.40;;;;;;;;;;5065997;28;20461;-64
2021/10/22 10:32:15;;;;;;;8.32;2.03;;;;;;;;;;5058517;28;20036;-67
2021/10/22 10:35:01;;;;;;;5.78;2.17;;;;;;;;;;5059498;28;20063;-68
2021/10/22 10:37:50;;;;;;;8.52;2.33;;;;;;;;;;5047337;28;20032;-66
2021/10/22 10:40:36;;;;;;;6.32;2.45;;;;;;;;;;5064174;28;20055;-68
2021/10/22 10:43:23;;;;;;;9.43;2.40;;;;;;;;;;5063339;28;20024;-72
2021/10/22 10:46:28;;;;;;;5.90;1.90;;;;;;;;;;5055657;28;20131;-68
2021/10/22 10:49:34;;;;;;;7.68;2.42;;;;;;;;;;5054244;28;20470;-65
2021/10/22 10:52:34;;;;;;;7.13;2.17;;;;;;;;;;5052294;28;20147;-63
2021/10/22 10:58:11;;;;;;;8.95;2.22;;;;;;;;;;5075144;28;20025;-66
2021/10/22 11:01:06;;;;;;;4.75;1.65;;;;;;;;;;5064004;28;20032;-63
2021/10/22 11:03:52;;;;;;;7.28;2.17;;;;;;;;;;5054201;28;20035;-63
2021/10/22 11:06:41;;;;;;;7.95;2.45;;;;;;;;;;5060283;28;20029;-63
2021/10/22 11:09:26;;;;;;;4.63;1.50;;;;;;;;;;5066120;28;20402;-65
2021/10/22 11:12:12;;;;;;;6.68;2.30;;;;;;;;;;5061850;28;20047;-58
2021/10/22 11:15:00;;;;;;;7.63;2.30;;;;;;;;;;5061419;28;20082;-58
2021/10/22 11:17:45;;;;;;;4.07;1.63;;;;;;;;;;5061413;28;20024;-56
2021/10/22 11:20:31;;;;;;;6.10;1.67;;;;;;;;;;5060097;28;20159;-55
2021/10/22 11:23:16;;;;;;;7.65;1.98;;;;;;;;;;5056582;28;20471;-55
2021/10/22 11:26:02;;;;;;;6.32;1.73;;;;;;;;;;5044941;28;20107;-71
2021/10/22 11:28:48;;;;;;;5.25;2.03;;;;;;;;;;5054565;28;20044;-63
2021/10/22 11:31:40;;;;;;;9.40;3.42;;;;;;;;;;5055931;28;20032;-61
2021/10/22 11:34:30;;;;;;;6.53;1.50;;;;;;;;;;5062205;28;20044;-60
2021/10/22 11:37:17;;;;;;;7.35;2.65;;;;;;;;;;5058721;28;20051;-64
2021/10/22 11:40:07;;;;;;;6.78;1.95;;;;;;;;;;5060433;28;20016;-61
2021/10/22 11:42:52;;;;;;;9.23;3.20;;;;;;;;;;5048838;28;20029;-60
2021/10/22 11:45:38;;;;;;;6.25;1.88;;;;;;;;;;5051835;28;20116;-71
2021/10/22 11:48:30;;;;;;;5.80;1.80;;;;;;;;;;5058291;28;20089;-64
2021/10/22 11:51:15;;;;;;;6.22;2.13;;;;;;;;;;5056199;28;20029;-63
2021/10/22 11:54:01;;;;;;;4.80;1.50;;;;;;;;;;5045434;28;20040;-59
2021/10/22 11:56:47;;;;;;;4.82;1.95;;;;;;;;;;5058912;28;20027;-61
2021/10/22 11:59:32;;;;;;;4.25;1.38;;;;;;;;;;5065185;28;20479;-60
2021/10/22 12:02:18;;;;;;;5.00;1.50;;;;;;;;;;5069356;28;20143;-71
2021/10/22 12:05:05;;;;;;;8.57;1.67;;;;;;;;;;5058631;28;21480;-62
2021/10/22 12:07:54;;;;;;;6.68;2.08;;;;;;;;;;5073520;28;20037;-59
2021/10/22 12:10:39;;;;;;;5.70;1.57;;;;;;;;;;5054918;28;20025;-61
2021/10/22 12:13:28;;;;;;;5.85;2.08;;;;;;;;;;5063496;28;20036;-61
2021/10/22 12:16:14;;;;;;;6.72;1.77;;;;;;;;;;5064203;28;20020;-61
2021/10/22 12:19:00;;;;;;;6.25;1.92;;;;;;;;;;5055888;28;20605;-62
2021/10/22 12:21:45;;;;;;;7.70;1.60;;;;;;;;;;5063902;28;20617;-61
2021/10/22 12:24:41;;;;;;;5.38;1.55;;;;;;;;;;5061657;28;20043;-64
2021/10/22 12:27:30;;;;;;;7.82;2.45;;;;;;;;;;5053924;28;20044;-62
2021/10/22 12:30:16;;;;;;;4.40;1.83;;;;;;;;;;5043745;28;20043;-61
2021/10/22 12:33:04;;;;;;;4.35;1.50;;;;;;;;;;5059890;28;20061;-63
2021/10/22 12:35:53;;;;;;;5.68;1.83;;;;;;;;;;5058532;28;20032;-60
2021/10/22 12:38:38;;;;;;;6.00;2.10;;;;;;;;;;5066408;28;20475;-62
2021/10/22 12:41:26;;;;;;;4.45;1.90;;;;;;;;;;5065663;28;20028;-62
2021/10/22 12:44:12;;;;;;;3.55;1.35;;;;;;;;;;5062443;28;20112;-62
2021/10/22 12:46:59;;;;;;;6.65;1.80;;;;;;;;;;5058011;28;20467;-60
2021/10/22 12:49:49;;;;;;;4.80;1.70;;;;;;;;;;5058516;28;20028;-61
2021/10/22 12:52:35;;;;;;;3.42;1.40;;;;;;;;;;5060661;28;20017;-65
2021/10/22 12:55:21;;;;;;;5.32;1.80;;;;;;;;;;5067440;28;20379;-60
2021/10/22 12:58:12;;;;;;;6.45;1.92;;;;;;;;;;5074768;28;20108;-72
2021/10/22 13:01:04;;;;;;;5.25;1.45;;;;;;;;;;5065864;28;20664;-73
2021/10/22 13:03:58;;;;;;;4.22;1.45;;;;;;;;;;5059642;28;20139;-73
2021/10/22 13:06:54;;;;;;;5.95;1.83;;;;;;;;;;5055132;28;20434;-73
2021/10/22 13:09:45;;;;;;;6.60;2.15;;;;;;;;;;5060172;28;20483;-74
2021/10/22 13:15:44;;;;;;;7.55;1.65;;;;;;;;;;5067478;28;20487;-70
2021/10/22 13:21:30;;;;;;;4.28;1.67;;;;;;;;;;5068424;28;20025;-60
2021/10/22 13:24:16;;;;;;;4.70;1.75;;;;;;;;;;5052375;28;20029;-61
2021/10/22 13:27:02;;;;;;;7.53;2.20;;;;;;;;;;5057920;28;20025;-60
2021/10/22 13:29:52;;;;;;;5.90;1.35;;;;;;;;;;5058297;28;20033;-65
2021/10/22 13:32:37;;;;;;;7.72;1.70;;;;;;;;;;5053226;28;20109;-61
2021/10/22 13:35:22;;;;;;;8.13;1.75;;;;;;;;;;5059685;28;20079;-62
2021/10/22 13:38:10;;;;;;;5.95;2.17;;;;;;;;;;5054485;28;20025;-73
2021/10/22 13:40:56;;;;;;;6.80;1.60;;;;;;;;;;5044583;28;20040;-75
2021/10/22 13:43:41;;;;;;;6.13;1.50;;;;;;;;;;5061566;28;20069;-72
2021/10/22 13:46:26;;;;;;;6.50;2.00;;;;;;;;;;5063991;28;20103;-73
2021/10/22 13:49:11;;;;;;;7.13;2.25;;;;;;;;;;5063365;28;20048;-76
2021/10/22 13:51:57;;;;;;;6.88;1.73;;;;;;;;;;5062544;28;20277;-77
2021/10/22 13:54:43;;;;;;;6.25;1.55;;;;;;;;;;5064742;28;20021;-54
2021/10/22 13:57:29;;;;;;;9.00;2.22;;;;;;;;;;5063660;28;20081;-74
2021/10/22 14:00:14;;;;;;;7.53;1.90;;;;;;;;;;5049670;28;20032;-73
2021/10/22 14:03:01;;;;;;;3.78;1.58;;;;;;;;;;5054913;28;20538;-73
2021/10/22 14:05:46;;;;;;;5.15;1.88;;;;;;;;;;5059610;28;20040;-73
2021/10/22 14:08:32;;;;;;;6.63;1.98;;;;;;;;;;5056494;28;20040;-73
2021/10/22 14:11:19;;;;;;;10.00;2.90;;;;;;;;;;5070428;28;20068;-74
2021/10/22 14:29:08;;;;;;;9.63;2.65;;;;;;;;;;5063470;28;20116;-62
2021/10/22 14:31:53;;;;;;;7.65;2.17;;;;;;;;;;5066791;28;20082;-78
2021/10/22 14:34:38;;;;;;;9.75;1.90;;;;;;;;;;5058011;28;20025;-64
2021/10/22 14:37:23;;;;;;;9.07;2.40;;;;;;;;;;5064471;28;20025;-66
2021/10/22 14:40:12;;;;;;;6.78;1.75;;;;;;;;;;5066892;28;20017;-64
2021/10/22 14:42:58;;;;;;;12.23;2.70;;;;;;;;;;5047930;28;20036;-62
2021/10/22 14:46:00;;;;;;;9.63;2.40;;;;;;;;;;5062118;28;20115;-62
2021/10/22 14:48:49;;;;;;;7.85;1.98;;;;;;;;;;5065303;28;20032;-64
2021/10/22 14:51:53;;;;;;;4.60;1.50;;;;;;;;;;5050325;28;20047;-62
2021/10/22 14:54:41;;;;;;;7.22;1.85;;;;;;;;;;5074436;28;20035;-64
2021/10/22 14:57:27;;;;;;;8.50;1.75;;;;;;;;;;5065686;28;20024;-64
2021/10/22 15:00:12;;;;;;;4.90;1.30;;;;;;;;;;5057240;28;20044;-64
2021/10/22 15:02:58;;;;;;;4.82;1.58;;;;;;;;;;5048377;28;20033;-61
2021/10/22 15:05:43;;;;;;;4.75;1.52;;;;;;;;;;5062803;28;20369;-62
2021/10/22 15:08:29;;;;;;;5.70;1.75;;;;;;;;;;5065146;28;20040;-81
2021/10/22 15:11:15;;;;;;;5.95;2.35;;;;;;;;;;5065807;28;20101;-70
2021/10/22 15:14:01;;;;;;;4.85;1.77;;;;;;;;;;5061207;28;20028;-70
2021/10/22 15:16:46;;;;;;;7.13;2.35;;;;;;;;;;5067711;28;20033;-69
2021/10/22 15:19:32;;;;;;;4.35;1.88;;;;;;;;;;5063492;28;20082;-70
2021/10/22 15:22:17;;;;;;;10.82;2.75;;;;;;;;;;5060036;28;20052;-74
2021/10/22 15:25:03;;;;;;;10.35;1.67;;;;;;;;;;5060674;28;20398;-64
2021/10/22 15:27:48;;;;;;;7.40;2.00;;;;;;;;;;5057296;28;20044;-63
2021/10/22 15:30:34;;;;;;;6.93;2.40;;;;;;;;;;5067157;28;20094;-61
2021/10/22 15:33:19;;;;;;;4.47;1.67;;;;;;;;;;5063731;28;20016;-63
2021/10/22 15:36:04;;;;;;;9.00;1.88;;;;;;;;;;5047405;28;20028;-62
2021/10/22 15:38:50;;;;;;;7.60;1.98;;;;;;;;;;5061710;28;20020;-62
2021/10/22 15:41:37;;;;;;;6.43;1.83;;;;;;;;;;5060184;28;20028;-65
2021/10/22 15:44:22;;;;;;;5.90;1.85;;;;;;;;;;5062891;28;20032;-63
2021/10/22 15:47:07;;;;;;;5.75;1.88;;;;;;;;;;5062754;28;20613;-69
2021/10/22 15:49:56;;;;;;;4.25;1.65;;;;;;;;;;5065116;28;20397;-67
2021/10/22 15:52:41;;;;;;;7.50;1.90;;;;;;;;;;5059787;28;20111;-68
2021/10/22 15:55:27;;;;;;;7.93;1.70;;;;;;;;;;5061960;28;20032;-66
2021/10/22 15:58:12;;;;;;;7.85;2.03;;;;;;;;;;5062838;28;20491;-68
2021/10/22 16:00:57;;;;;;;6.57;1.98;;;;;;;;;;5063742;28;20036;-66
2021/10/22 16:03:44;;;;;;;6.32;2.17;;;;;;;;;;5063128;28;20087;-64
2021/10/22 16:06:31;;;;;;;5.60;2.10;;;;;;;;;;5062799;28;20024;-63
2021/10/22 16:09:52;;;;;;;8.23;2.05;;;;;;;;;;5064377;28;20044;-63
2021/10/22 16:12:33;;;;;;;4.35;1.77;;;;;;;;;;5062901;28;20054;-64
2021/10/22 16:18:16;;;;;;;7.43;2.38;;;;;;;;;;5060855;28;20148;-64
2021/10/22 16:21:01;;;;;;;6.80;2.00;;;;;;;;;;5064084;28;20032;-65
2021/10/22 16:23:47;;;;;;;5.47;1.77;;;;;;;;;;5055454;28;20029;-61
2021/10/22 16:26:33;;;;;;;7.15;2.70;;;;;;;;;;5058226;28;20041;-60
2021/10/22 16:29:20;;;;;;;7.25;2.53;;;;;;;;;;5058306;28;20067;-60
2021/10/22 16:32:10;;;;;;;5.25;1.80;;;;;;;;;;5057415;28;20074;-62
2021/10/22 16:38:01;;;;;;;6.30;1.95;;;;;;;;;;5058114;28;20040;-63
2021/10/22 16:40:46;;;;;;;9.43;2.42;;;;;;;;;;5061037;28;20032;-59
2021/10/22 16:43:35;;;;;;;5.40;2.08;;;;;;;;;;5074245;28;20083;-75
2021/10/22 16:46:20;;;;;;;6.57;2.25;;;;;;;;;;5044570;28;20492;-74
2021/10/22 16:49:05;;;;;;;4.88;2.00;;;;;;;;;;5060461;28;20041;-75
2021/10/22 16:51:54;;;;;;;10.05;2.47;;;;;;;;;;5049049;28;20033;-76
2021/10/22 16:54:39;;;;;;;7.38;2.03;;;;;;;;;;5054070;28;20094;-76
2021/10/22 16:57:25;;;;;;;9.73;2.47;;;;;;;;;;5057716;28;20082;-77
2021/10/22 17:00:10;;;;;;;10.63;2.85;;;;;;;;;;5052709;28;20540;-64
2021/10/22 17:02:55;;;;;;;9.23;2.25;;;;;;;;;;5052174;28;20117;-65
2021/10/22 17:05:41;;;;;;;9.43;3.05;;;;;;;;;;5049696;28;20024;-63
2021/10/22 17:08:26;;;;;;;5.18;2.00;;;;;;;;;;5060523;28;20553;-66
2021/10/22 17:11:11;;;;;;;6.32;2.05;;;;;;;;;;5066256;28;20459;-63
2021/10/22 17:13:57;;;;;;;12.57;3.67;;;;;;;;;;5055434;28;20123;-62